Time;durP1;ratioP1;P1;durP2;ratioP2;P2;SDS_P1;SDS_P2;PMS_P1;PMS_P2;Temp;Humidity;BMP_temperature;BMP_pressure;BME280_temperature;BME280_humidity;BME280_pressure;Samples;Min_cycle;Max_cycle;Signal;HPM_P1;HPM_P2
2022/06/23 00:00:04;;;;;;;3.60;1.88;;;14.30;99.90;;;;;;5029725;28;20049;-80
2022/06/23 00:02:52;;;;;;;4.85;2.38;;;14.30;99.90;;;;;;5012301;28;20049;-80
2022/06/23 00:05:41;;;;;;;4.28;2.08;;;14.30;99.90;;;;;;5029607;28;20053;-79
2022/06/23 00:08:28;;;;;;;3.95;1.80;;;14.20;99.90;;;;;;5013207;28;20042;-79
2022/06/23 00:11:21;;;;;;;4.15;2.20;;;14.20;99.90;;;;;;5012736;28;20144;-79
2022/06/23 00:14:13;;;;;;;4.03;1.88;;;14.10;99.90;;;;;;5029126;28;20128;-79
2022/06/23 00:17:23;;;;;;;4.35;2.40;;;14.10;99.90;;;;;;5012612;28;20049;-80
2022/06/23 00:20:17;;;;;;;5.22;2.05;;;14.10;99.90;;;;;;5012317;28;20060;-79
2022/06/23 00:23:20;;;;;;;5.55;2.05;;;14.00;99.90;;;;;;5000047;28;20053;-79
2022/06/23 00:26:12;;;;;;;4.88;2.20;;;14.00;99.90;;;;;;5030358;28;20053;-78
2022/06/23 00:29:03;;;;;;;7.45;2.35;;;14.00;99.90;;;;;;4999570;28;20497;-80
2022/06/23 00:31:56;;;;;;;4.13;2.50;;;13.90;99.90;;;;;;5015148;28;20115;-80
2022/06/23 00:34:52;;;;;;;5.63;2.97;;;13.80;99.90;;;;;;5012107;28;20128;-81
2022/06/23 00:37:43;;;;;;;;;;;13.80;99.90;;;;;;5012796;28;20064;-80
2022/06/23 00:40:29;;;;;;;5.85;3.30;;;13.80;99.90;;;;;;5013119;28;20012;-80
2022/06/23 00:43:17;;;;;;;6.30;3.42;;;13.70;99.90;;;;;;5029891;28;20160;-79
2022/06/23 00:46:14;;;;;;;5.90;3.20;;;13.70;99.90;;;;;;5011535;28;20056;-80
2022/06/23 00:49:08;;;;;;;6.93;3.55;;;13.70;99.90;;;;;;5012432;28;20132;-80
2022/06/23 00:51:59;;;;;;;6.53;4.20;;;13.80;99.90;;;;;;4998573;28;20148;-80
2022/06/23 00:54:51;;;;;;;7.97;3.78;;;13.70;99.90;;;;;;5015364;28;20195;-80
2022/06/23 00:57:46;;;;;;;5.97;2.92;;;13.70;99.90;;;;;;5016620;28;20056;-80
2022/06/23 01:00:37;;;;;;;5.32;3.13;;;13.80;99.90;;;;;;5015935;28;20119;-79
2022/06/23 01:03:49;;;;;;;6.53;3.47;;;13.80;99.90;;;;;;5015607;28;20493;-81
2022/06/23 01:06:40;;;;;;;7.00;3.53;;;13.80;99.90;;;;;;5014729;28;20195;-81
2022/06/23 01:09:48;;;;;;;6.18;3.15;;;13.80;99.90;;;;;;5015651;28;20068;-80
2022/06/23 01:12:43;;;;;;;4.78;3.28;;;13.80;99.90;;;;;;5034381;28;20046;-81
2022/06/23 01:15:42;;;;;;;7.88;4.53;;;13.80;99.90;;;;;;5033609;28;20613;-81
2022/06/23 01:18:38;;;;;;;5.70;3.63;;;13.80;99.90;;;;;;5033672;28;20049;-80
2022/06/23 01:21:36;;;;;;;7.28;4.60;;;13.80;99.90;;;;;;5014200;28;20049;-80
2022/06/23 01:24:31;;;;;;;8.57;4.43;;;13.80;99.90;;;;;;5032757;28;20050;-82
2022/06/23 01:27:55;;;;;;;8.88;5.32;;;13.80;99.90;;;;;;5014374;28;20054;-80
2022/06/23 01:31:02;;;;;;;10.98;5.53;;;13.80;99.90;;;;;;5015297;28;20136;-81
2022/06/23 01:33:58;;;;;;;7.28;4.38;;;13.80;99.90;;;;;;5001837;28;20068;-81
2022/06/23 01:37:04;;;;;;;8.48;3.83;;;13.80;99.90;;;;;;5014583;28;20505;-81
2022/06/23 01:40:09;;;;;;;7.45;4.13;;;13.80;99.90;;;;;;5032014;28;20425;-81
2022/06/23 01:43:20;;;;;;;9.10;4.53;;;13.80;99.90;;;;;;5032247;28;20406;-81
2022/06/23 01:46:16;;;;;;;7.88;3.90;;;13.70;99.90;;;;;;5032355;28;20049;-80
2022/06/23 01:49:19;;;;;;;7.07;4.63;;;13.70;99.90;;;;;;5032817;28;20053;-81
2022/06/23 01:52:12;;;;;;;7.63;4.55;;;13.70;99.90;;;;;;5014994;28;20386;-81
2022/06/23 01:55:13;;;;;;;8.57;4.97;;;13.60;99.90;;;;;;5014890;28;20041;-80
2022/06/23 01:58:06;;;;;;;9.63;5.15;;;13.60;99.90;;;;;;5031769;28;20453;-81
2022/06/23 02:00:57;;;;;;;9.60;4.43;;;13.50;99.90;;;;;;5032957;28;20059;-80
2022/06/23 02:03:48;;;;;;;7.07;4.47;;;13.50;99.90;;;;;;5033227;28;20500;-82
2022/06/23 02:06:45;;;;;;;7.35;4.55;;;13.50;99.90;;;;;;5014400;28;20091;-80
2022/06/23 02:09:47;;;;;;;9.70;5.95;;;13.50;99.90;;;;;;5012827;28;20198;-80
2022/06/23 02:12:53;;;;;;;7.13;4.93;;;13.40;99.90;;;;;;5014767;28;20064;-80
2022/06/23 02:15:54;;;;;;;8.10;5.57;;;13.40;99.90;;;;;;5032030;28;20480;-80
2022/06/23 02:18:50;;;;;;;8.43;5.20;;;13.40;99.90;;;;;;5014222;28;20068;-80
2022/06/23 02:21:46;;;;;;;10.93;5.55;;;13.40;99.90;;;;;;5014425;28;20064;-80
2022/06/23 02:24:44;;;;;;;;;;;13.40;99.90;;;;;;5032777;28;20049;-79
2022/06/23 02:27:52;;;;;;;8.77;5.38;;;13.30;99.90;;;;;;5014671;28;20029;-80
2022/06/23 02:31:04;;;;;;;7.43;5.22;;;13.30;99.90;;;;;;5030985;28;20106;-80
2022/06/23 02:34:06;;;;;;;10.25;6.20;;;13.30;99.90;;;;;;5000576;28;20053;-79
2022/06/23 02:37:01;;;;;;;9.88;6.22;;;13.20;99.90;;;;;;5031726;28;20227;-79
2022/06/23 02:39:52;;;;;;;14.90;6.90;;;13.20;99.90;;;;;;5031738;28;20056;-80
2022/06/23 02:42:40;;;;;;;9.55;5.85;;;13.20;99.90;;;;;;5032793;28;20132;-80
2022/06/23 02:45:29;;;;;;;10.43;5.93;;;13.20;99.90;;;;;;5031458;28;20049;-80
2022/06/23 02:48:18;;;;;;;10.90;7.05;;;13.20;99.90;;;;;;5013994;28;20556;-81
2022/06/23 02:51:25;;;;;;;10.68;6.95;;;13.20;99.90;;;;;;5014574;28;20045;-80
2022/06/23 02:54:37;;;;;;;9.50;5.90;;;13.20;99.90;;;;;;5013557;28;20136;-80
2022/06/23 02:57:32;;;;;;;10.13;6.50;;;13.20;99.90;;;;;;5012821;28;20057;-80
2022/06/23 03:00:48;;;;;;;11.82;7.35;;;13.10;99.90;;;;;;5479986;23;20080;-80
2022/06/23 03:03:47;;;;;;;;;;;13.10;99.90;;;;;;4994096;28;20046;-80
2022/06/23 03:06:40;;;;;;;10.07;6.22;;;13.10;99.90;;;;;;5010663;28;20373;-81
2022/06/23 03:09:37;;;;;;;10.52;6.57;;;13.00;99.90;;;;;;5010276;28;20045;-81
2022/06/23 03:12:29;;;;;;;9.60;6.18;;;13.00;99.90;;;;;;4992753;28;20058;-80
2022/06/23 03:15:31;;;;;;;11.75;6.47;;;13.00;99.90;;;;;;4966553;28;20525;-79
2022/06/23 03:18:22;;;;;;;11.88;7.10;;;13.00;99.90;;;;;;4993389;28;20053;-80
2022/06/23 03:21:23;;;;;;;10.13;6.35;;;13.00;99.90;;;;;;4992899;28;20461;-80
2022/06/23 03:24:30;;;;;;;11.35;6.57;;;13.10;99.90;;;;;;4992159;28;20498;-80
2022/06/23 03:27:42;;;;;;;14.73;6.95;;;13.00;99.90;;;;;;5010527;28;20401;-80
2022/06/23 03:30:47;;;;;;;10.82;6.25;;;13.00;99.90;;;;;;4994030;28;20049;-80
2022/06/23 03:33:46;;;;;;;11.25;6.72;;;13.00;99.90;;;;;;5010407;28;20145;-79
2022/06/23 03:36:57;;;;;;;11.18;6.97;;;13.00;99.90;;;;;;5010429;28;20078;-80
2022/06/23 03:43:45;;;;;;;12.80;7.43;;;13.00;99.90;;;;;;4979509;28;20493;-79
2022/06/23 03:46:39;;;;;;;11.43;7.10;;;13.00;99.90;;;;;;4984774;28;20054;-80
2022/06/23 03:49:57;;;;;;;11.27;6.85;;;13.00;99.90;;;;;;5010127;28;20449;-80
2022/06/23 03:52:50;;;;;;;12.68;6.30;;;13.00;99.90;;;;;;4985155;28;20111;-80
2022/06/23 03:55:48;;;;;;;14.15;7.13;;;13.00;99.90;;;;;;4993114;28;20060;-80
2022/06/23 03:58:40;;;;;;;12.68;6.82;;;13.10;99.90;;;;;;4992363;28;20049;-80
2022/06/23 04:01:35;;;;;;;10.63;6.47;;;13.10;99.90;;;;;;4992329;28;20072;-80
2022/06/23 04:04:48;;;;;;;10.65;6.80;;;13.10;99.90;;;;;;4993369;28;20057;-81
2022/06/23 04:07:56;;;;;;;11.50;6.50;;;13.10;99.90;;;;;;5011025;28;20046;-81
2022/06/23 04:10:44;;;;;;;9.63;6.30;;;13.20;99.90;;;;;;4994304;28;20192;-79
2022/06/23 04:13:36;;;;;;;16.77;6.95;;;13.20;99.90;;;;;;5010354;28;20054;-79
2022/06/23 04:16:24;;;;;;;12.38;7.10;;;13.30;99.90;;;;;;4992941;28;20138;-79
2022/06/23 04:19:19;;;;;;;20.63;8.15;;;13.40;99.90;;;;;;5010011;28;20108;-80
2022/06/23 04:22:14;;;;;;;11.13;6.97;;;13.40;99.90;;;;;;5012136;28;20053;-81
2022/06/23 04:25:02;;;;;;;13.93;7.53;;;13.50;99.90;;;;;;5009597;28;20050;-80
2022/06/23 04:27:52;;;;;;;10.85;6.30;;;13.50;99.90;;;;;;5004450;28;20046;-80
2022/06/23 04:30:40;;;;;;;10.15;5.75;;;13.60;99.90;;;;;;4994413;28;20054;-79
2022/06/23 04:33:28;;;;;;;12.77;8.05;;;13.70;99.90;;;;;;4994179;28;20057;-78
2022/06/23 04:36:26;;;;;;;12.27;6.93;;;13.70;99.90;;;;;;5014631;28;20394;-80
2022/06/23 04:39:34;;;;;;;11.77;7.47;;;13.80;99.90;;;;;;5014092;28;20086;-79
2022/06/23 04:42:25;;;;;;;12.63;6.82;;;13.90;99.90;;;;;;5013956;28;20375;-79
2022/06/23 04:45:47;;;;;;;10.85;7.07;;;14.00;99.90;;;;;;5013220;28;20096;-80
2022/06/23 04:48:39;;;;;;;12.25;6.47;;;14.10;99.90;;;;;;4996832;28;20099;-80
2022/06/23 04:51:36;;;;;;;13.40;6.72;;;14.20;99.90;;;;;;4996883;28;20050;-81
2022/06/23 04:54:29;;;;;;;13.55;7.55;;;14.30;99.90;;;;;;5013911;28;20054;-77
2022/06/23 04:57:20;;;;;;;9.73;5.97;;;14.40;99.90;;;;;;5013650;28;20152;-78
2022/06/23 05:00:49;;;;;;;10.80;6.25;;;14.50;99.90;;;;;;4995427;28;20057;-79
2022/06/23 05:03:44;;;;;;;11.88;6.75;;;14.60;99.90;;;;;;4992575;28;20049;-80
2022/06/23 05:06:44;;;;;;;12.77;7.32;;;14.70;99.90;;;;;;5012985;28;20050;-79
2022/06/23 05:09:36;;;;;;;13.13;7.13;;;14.80;99.90;;;;;;5014612;28;20147;-79
2022/06/23 05:12:32;;;;;;;10.82;6.93;;;14.80;99.90;;;;;;5013308;28;20084;-80
2022/06/23 05:15:28;;;;;;;10.57;6.95;;;15.00;99.90;;;;;;4981601;28;20050;-81
2022/06/23 05:18:24;;;;;;;12.90;6.63;;;15.00;99.90;;;;;;4995437;28;20073;-80
2022/06/23 05:21:13;;;;;;;12.90;7.03;;;15.20;99.90;;;;;;5012093;28;20062;-80
2022/06/23 05:24:12;;;;;;;13.45;7.38;;;15.30;99.90;;;;;;5013281;28;20060;-79
2022/06/23 05:27:02;;;;;;;11.30;6.65;;;15.50;99.90;;;;;;5011859;28;20158;-79
2022/06/23 05:30:07;;;;;;;11.25;6.47;;;15.60;99.90;;;;;;5013080;28;20863;-79
2022/06/23 05:33:01;;;;;;;13.02;6.72;;;15.80;99.90;;;;;;5012880;28;20469;-79
2022/06/23 05:35:52;;;;;;;11.05;7.03;;;15.90;99.90;;;;;;5012622;28;20049;-79
2022/06/23 05:38:50;;;;;;;11.05;6.72;;;16.00;99.90;;;;;;4995556;28;20136;-79
2022/06/23 05:41:40;;;;;;;13.93;7.10;;;16.20;99.90;;;;;;5011507;28;20132;-79
2022/06/23 05:44:42;;;;;;;14.40;6.82;;;16.30;99.90;;;;;;4996260;28;20050;-80
2022/06/23 05:47:32;;;;;;;8.50;5.78;;;16.40;99.90;;;;;;4995868;28;20045;-80
2022/06/23 05:50:30;;;;;;;10.02;6.35;;;16.60;99.90;;;;;;4994110;28;20053;-79
2022/06/23 05:53:28;;;;;;;10.13;6.25;;;16.70;99.90;;;;;;4998953;28;20049;-81
2022/06/23 05:56:17;;;;;;;10.15;5.85;;;16.80;99.90;;;;;;5012742;28;20414;-79
2022/06/23 05:59:12;;;;;;;10.98;6.65;;;16.90;99.90;;;;;;4995000;28;20049;-79
2022/06/23 06:02:09;;;;;;;;;;;17.10;99.90;;;;;;4995344;28;20108;-79
2022/06/23 06:04:58;;;;;;;12.18;7.07;;;17.20;99.90;;;;;;4995108;28;20335;-79
2022/06/23 06:07:44;;;;;;;12.45;6.15;;;17.30;99.90;;;;;;4998573;28;20056;-80
2022/06/23 06:10:34;;;;;;;14.57;5.53;;;17.50;99.90;;;;;;4982233;28;20143;-80
2022/06/23 06:13:27;;;;;;;8.88;5.95;;;17.60;99.90;;;;;;5011963;28;20060;-79
2022/06/23 06:16:13;;;;;;;11.27;4.93;;;17.70;99.90;;;;;;4999310;28;20093;-80
2022/06/23 06:19:00;;;;;;;11.30;5.07;;;17.80;99.90;;;;;;4994807;28;20080;-79
2022/06/23 06:21:48;;;;;;;8.68;5.72;;;18.00;99.90;;;;;;5012881;28;20050;-79
2022/06/23 06:24:42;;;;;;;8.82;5.75;;;18.20;99.90;;;;;;4980888;28;20061;-79
2022/06/23 06:27:28;;;;;;;9.70;5.35;;;18.40;99.90;;;;;;5012053;28;20049;-80
2022/06/23 06:30:19;;;;;;;11.43;6.85;;;18.50;99.90;;;;;;5016064;28;20046;-80
2022/06/23 06:33:05;;;;;;;10.95;6.00;;;18.60;99.90;;;;;;5011751;28;20115;-78
2022/06/23 06:35:54;;;;;;;11.90;7.07;;;18.70;99.90;;;;;;4979424;28;20843;-80
2022/06/23 06:38:40;;;;;;;9.23;6.25;;;18.90;99.90;;;;;;5012164;28;20185;-80
2022/06/23 06:41:26;;;;;;;12.68;6.22;;;19.00;99.90;;;;;;4980331;28;20096;-80
2022/06/23 06:44:13;;;;;;;9.75;6.53;;;19.20;99.90;;;;;;4980465;28;20492;-79
2022/06/23 06:47:00;;;;;;;10.35;6.25;;;19.30;99.90;;;;;;4997048;28;20050;-80
2022/06/23 06:49:52;;;;;;;9.75;5.90;;;19.40;99.90;;;;;;5011814;28;20486;-80
2022/06/23 06:52:38;;;;;;;9.73;6.13;;;19.60;99.90;;;;;;4993091;28;20589;-81
2022/06/23 06:55:31;;;;;;;10.65;6.60;;;19.80;99.90;;;;;;5011635;28;20053;-79
2022/06/23 06:58:26;;;;;;;11.23;5.47;;;20.00;99.90;;;;;;5012331;28;20042;-80
2022/06/23 07:01:21;;;;;;;8.63;5.67;;;20.20;99.90;;;;;;4992611;28;20187;-79
2022/06/23 07:04:14;;;;;;;9.30;6.05;;;20.40;99.90;;;;;;4996162;28;20300;-80
2022/06/23 07:07:05;;;;;;;10.73;7.05;;;20.40;99.90;;;;;;4992833;28;20179;-80
2022/06/23 07:09:57;;;;;;;9.32;6.68;;;20.50;99.90;;;;;;4996782;28;20094;-80
2022/06/23 07:12:55;;;;;;;9.02;6.10;;;20.60;99.90;;;;;;4993095;28;20457;-80
2022/06/23 07:16:00;;;;;;;10.18;6.05;;;20.80;99.90;;;;;;5011327;28;20501;-80
2022/06/23 07:19:25;;;;;;;9.95;5.63;;;20.90;99.90;;;;;;5012364;28;20128;-80
2022/06/23 07:22:29;;;;;;;11.32;5.72;;;21.10;99.90;;;;;;5011969;28;20497;-80
2022/06/23 07:25:23;;;;;;;11.40;5.50;;;21.20;99.90;;;;;;5011334;28;20042;-81
2022/06/23 07:28:35;;;;;;;10.60;6.93;;;21.40;99.90;;;;;;4980581;28;20494;-80
2022/06/23 07:31:56;;;;;;;9.20;4.95;;;21.50;99.90;;;;;;4992313;28;20049;-80
2022/06/23 07:34:51;;;;;;;9.93;5.68;;;21.70;99.90;;;;;;5009300;28;20117;-79
2022/06/23 07:37:41;;;;;;;;;;;21.90;99.90;;;;;;4993571;28;20053;-81
2022/06/23 07:40:33;;;;;;;8.95;5.07;;;22.00;99.90;;;;;;5009515;28;20258;-80
2022/06/23 07:43:34;;;;;;;7.10;5.00;;;22.20;99.90;;;;;;5010286;28;20077;-81
2022/06/23 07:46:20;;;;;;;8.48;4.65;;;22.40;99.90;;;;;;5009434;28;20064;-80
2022/06/23 07:49:08;;;;;;;8.60;4.78;;;22.60;99.90;;;;;;4979710;28;20081;-80
2022/06/23 07:51:55;;;;;;;7.20;4.93;;;22.70;99.90;;;;;;4993935;28;20053;-81
2022/06/23 07:54:42;;;;;;;9.77;6.03;;;22.80;99.90;;;;;;5010732;28;20490;-80
2022/06/23 07:57:31;;;;;;;10.02;5.15;;;22.90;99.90;;;;;;5011832;28;20121;-82
2022/06/23 08:00:17;;;;;;;7.93;4.88;;;23.10;99.90;;;;;;5011448;28;20132;-81
2022/06/23 08:03:12;;;;;;;10.70;5.57;;;23.40;99.90;;;;;;5011260;28;20532;-80
2022/06/23 08:06:03;;;;;;;8.90;4.80;;;23.60;99.90;;;;;;5011119;28;20041;-80
2022/06/23 08:08:54;;;;;;;8.25;5.07;;;23.70;99.90;;;;;;5013746;28;20049;-80
2022/06/23 08:18:26;;;;;;;8.52;5.20;;;24.30;99.90;;;;;;5007263;28;20085;-81
2022/06/23 08:21:45;;;;;;;7.93;5.07;;;24.10;99.90;;;;;;4996706;28;20053;-80
2022/06/23 08:24:32;;;;;;;9.43;5.80;;;24.40;99.90;;;;;;5012934;28;20060;-80
2022/06/23 08:27:21;;;;;;;8.60;5.25;;;24.50;99.90;;;;;;5014678;28;20141;-80
2022/06/23 08:30:11;;;;;;;9.18;5.57;;;24.70;99.90;;;;;;4996234;28;20563;-81
2022/06/23 08:32:58;;;;;;;7.65;4.97;;;24.70;99.90;;;;;;5015445;28;20054;-80
2022/06/23 08:35:49;;;;;;;11.23;6.85;;;24.90;99.90;;;;;;5016879;28;20060;-81
2022/06/23 08:38:48;;;;;;;9.55;5.38;;;25.10;99.50;;;;;;4996750;28;20482;-81
2022/06/23 08:41:51;;;;;;;7.25;4.82;;;25.10;99.40;;;;;;4996217;28;20054;-80
2022/06/23 08:45:05;;;;;;;8.88;5.28;;;25.20;99.30;;;;;;5013945;28;20504;-81
2022/06/23 08:48:05;;;;;;;12.57;6.43;;;25.40;98.60;;;;;;4998241;28;20482;-81
2022/06/23 08:51:12;;;;;;;11.40;5.30;;;25.50;99.20;;;;;;4997712;28;20092;-80
2022/06/23 08:54:19;;;;;;;11.63;6.70;;;25.70;97.90;;;;;;4994874;28;20140;-81
2022/06/23 08:57:21;;;;;;;10.10;5.28;;;26.00;97.70;;;;;;5016679;28;20050;-81
2022/06/23 09:00:15;;;;;;;11.23;5.70;;;26.30;98.60;;;;;;5013804;28;20129;-81
2022/06/23 09:03:04;;;;;;;7.55;5.13;;;26.30;97.70;;;;;;5008415;28;20108;-81
2022/06/23 09:06:05;;;;;;;11.88;5.70;;;26.50;97.90;;;;;;4997320;28;20409;-81
2022/06/23 09:09:13;;;;;;;8.15;4.93;;;26.60;96.90;;;;;;5002174;28;20042;-80
2022/06/23 09:12:16;;;;;;;8.93;5.30;;;26.90;96.50;;;;;;4996619;28;20406;-81
2022/06/23 09:15:28;;;;;;;9.15;4.60;;;27.00;96.00;;;;;;5017447;28;20049;-81
2022/06/23 09:18:43;;;;;;;8.98;4.43;;;27.30;95.50;;;;;;5012877;28;20089;-81
2022/06/23 09:22:00;;;;;;;6.57;4.28;;;27.50;95.20;;;;;;5013084;28;20422;-82
2022/06/23 09:24:57;;;;;;;9.10;4.72;;;27.60;94.90;;;;;;4996705;28;20398;-81
2022/06/23 09:27:55;;;;;;;6.13;3.40;;;27.60;94.10;;;;;;5013504;28;20143;-82
2022/06/23 09:30:56;;;;;;;5.68;3.72;;;27.80;94.60;;;;;;4996298;28;20049;-81
2022/06/23 09:33:54;;;;;;;8.10;4.38;;;28.10;93.60;;;;;;4996071;28;20089;-82
2022/06/23 09:37:03;;;;;;;8.52;4.03;;;28.10;92.70;;;;;;5012242;28;20049;-80
2022/06/23 09:40:12;;;;;;;7.80;3.70;;;28.30;92.60;;;;;;5014063;28;20042;-82
2022/06/23 09:43:04;;;;;;;10.48;3.42;;;28.50;92.80;;;;;;4983447;28;20128;-81
2022/06/23 09:46:22;;;;;;;7.32;3.88;;;28.80;92.70;;;;;;4995665;28;20140;-80
2022/06/23 09:49:37;;;;;;;8.02;3.63;;;29.10;92.20;;;;;;4969188;28;20046;-81
2022/06/23 09:52:49;;;;;;;6.22;3.28;;;29.30;91.90;;;;;;4984690;28;20045;-81
2022/06/23 09:55:57;;;;;;;7.32;3.47;;;29.40;92.10;;;;;;5001919;28;20060;-81
2022/06/23 09:59:02;;;;;;;7.47;3.65;;;29.60;91.30;;;;;;4994057;28;20054;-81
2022/06/23 10:02:12;;;;;;;6.57;3.00;;;29.60;90.00;;;;;;4987655;28;20085;-81
2022/06/23 10:05:20;;;;;;;7.88;4.03;;;29.70;85.30;;;;;;5007806;28;20052;-80
2022/06/23 10:08:31;;;;;;;7.28;2.97;;;30.00;83.80;;;;;;5012760;28;20057;-80
2022/06/23 10:11:52;;;;;;;5.70;3.03;;;30.20;83.60;;;;;;5012631;28;20088;-80
2022/06/23 10:14:53;;;;;;;8.05;3.60;;;30.50;84.60;;;;;;4983942;28;20052;-80
2022/06/23 10:18:00;;;;;;;5.38;2.95;;;30.60;86.40;;;;;;5011245;28;20144;-81
2022/06/23 10:20:59;;;;;;;5.30;3.03;;;30.80;86.50;;;;;;5014300;28;20046;-82
2022/06/23 10:23:55;;;;;;;7.75;3.58;;;30.70;79.40;;;;;;4995678;28;20421;-79
2022/06/23 10:26:44;;;;;;;6.25;3.08;;;30.90;81.90;;;;;;4995020;28;20053;-79
2022/06/23 10:29:37;;;;;;;8.45;3.00;;;31.10;85.00;;;;;;4994751;28;20050;-81
2022/06/23 10:32:53;;;;;;;6.65;2.92;;;31.30;87.90;;;;;;4994808;28;20152;-80
2022/06/23 10:36:16;;;;;;;6.93;2.75;;;31.30;79.70;;;;;;5011957;28;20486;-78
2022/06/23 10:39:21;;;;;;;7.65;2.65;;;31.40;74.80;;;;;;5012158;28;20054;-80
2022/06/23 10:42:33;;;;;;;6.68;3.20;;;31.50;75.00;;;;;;5012452;28;20054;-81
2022/06/23 10:45:42;;;;;;;8.70;3.75;;;31.70;70.00;;;;;;4995435;28;20042;-81
2022/06/23 10:48:43;;;;;;;8.13;2.92;;;31.50;65.20;;;;;;4994461;28;20049;-82
2022/06/23 10:52:28;;;;;;;5.25;3.10;;;31.70;68.50;;;;;;5010742;28;20045;-80
2022/06/23 10:55:37;;;;;;;6.07;2.97;;;31.80;62.30;;;;;;4958004;28;20051;-80
2022/06/23 10:58:50;;;;;;;5.90;2.97;;;32.00;58.70;;;;;;4980097;28;20077;-78
2022/06/23 11:02:01;;;;;;;5.80;3.00;;;32.00;60.90;;;;;;4975250;28;20450;-79
2022/06/23 11:05:08;;;;;;;6.72;3.15;;;32.10;61.60;;;;;;4978001;28;20422;-79
2022/06/23 11:08:16;;;;;;;6.78;2.92;;;32.20;61.10;;;;;;4980019;28;20579;-78
2022/06/23 11:11:17;;;;;;;5.95;2.88;;;32.20;58.50;;;;;;4974984;28;20513;-79
2022/06/23 11:14:22;;;;;;;5.32;2.63;;;32.40;59.70;;;;;;4991209;28;20414;-79
2022/06/23 11:17:43;;;;;;;5.53;2.72;;;32.40;58.10;;;;;;4974871;28;20054;-81
2022/06/23 11:20:41;;;;;;;5.35;2.47;;;32.60;57.70;;;;;;4983698;28;20062;-81
2022/06/23 11:23:44;;;;;;;5.72;2.92;;;32.60;57.20;;;;;;4991197;28;20136;-82
2022/06/23 11:27:17;;;;;;;6.07;2.50;;;32.70;56.60;;;;;;4992136;28;20046;-82
2022/06/23 11:30:07;;;;;;;6.50;2.50;;;33.00;54.90;;;;;;4969552;28;20057;-79
2022/06/23 11:33:17;;;;;;;6.38;2.65;;;32.90;53.40;;;;;;4954984;28;20063;-80
2022/06/23 11:36:16;;;;;;;5.63;1.77;;;33.10;56.60;;;;;;4991229;28;20046;-79
2022/06/23 11:39:26;;;;;;;5.00;2.60;;;33.40;55.50;;;;;;4991940;28;20062;-80
2022/06/23 11:42:24;;;;;;;7.20;1.95;;;33.80;56.50;;;;;;4992241;28;20054;-79
2022/06/23 11:45:22;;;;;;;6.07;2.20;;;33.60;52.90;;;;;;4991718;28;20061;-79
2022/06/23 11:48:27;;;;;;;3.67;1.83;;;33.80;53.20;;;;;;4974043;28;20042;-80
2022/06/23 11:51:29;;;;;;;7.40;1.77;;;33.80;51.50;;;;;;4993344;28;20046;-80
2022/06/23 11:54:53;;;;;;;11.95;1.95;;;33.90;50.70;;;;;;4991553;28;20062;-81
2022/06/23 11:57:57;;;;;;;4.78;1.83;;;34.00;51.30;;;;;;4991508;28;20093;-80
2022/06/23 12:00:43;;;;;;;3.80;1.70;;;34.00;49.30;;;;;;4988210;28;20064;-80
2022/06/23 12:03:51;;;;;;;8.93;2.10;;;34.30;51.10;;;;;;5010074;28;20046;-80
2022/06/23 12:06:56;;;;;;;5.60;2.22;;;34.60;50.90;;;;;;5009923;28;20053;-80
2022/06/23 12:10:00;;;;;;;4.75;2.13;;;34.90;50.00;;;;;;4994279;28;20128;-80
2022/06/23 12:12:51;;;;;;;4.32;2.05;;;34.90;49.30;;;;;;5002499;28;20413;-79
2022/06/23 12:15:47;;;;;;;4.35;2.20;;;34.60;48.30;;;;;;5002107;28;20056;-79
2022/06/23 12:19:01;;;;;;;3.85;1.83;;;34.90;48.50;;;;;;5011574;28;20490;-80
2022/06/23 12:22:11;;;;;;;4.95;1.80;;;34.90;49.90;;;;;;5009359;28;20050;-78
2022/06/23 12:25:04;;;;;;;5.40;2.13;;;35.10;48.30;;;;;;4993287;28;20129;-79
2022/06/23 12:28:14;;;;;;;5.18;1.80;;;35.20;48.50;;;;;;4992160;28;20482;-80
2022/06/23 12:31:41;;;;;;;4.93;2.10;;;35.60;49.30;;;;;;4993816;28;20414;-80
2022/06/23 12:34:39;;;;;;;6.18;1.90;;;35.60;47.90;;;;;;4991177;28;20050;-80
2022/06/23 12:38:06;;;;;;;3.40;1.60;;;35.70;47.00;;;;;;4993096;28;20077;-80
2022/06/23 12:41:08;;;;;;;7.30;1.80;;;35.90;47.50;;;;;;5010969;28;20042;-80
2022/06/23 12:44:07;;;;;;;5.65;1.70;;;36.10;47.30;;;;;;4991711;28;20050;-80
2022/06/23 12:47:10;;;;;;;5.22;2.17;;;36.10;45.60;;;;;;4996003;28;20104;-81
2022/06/23 12:50:12;;;;;;;6.93;2.22;;;36.00;45.40;;;;;;5010209;28;20077;-79
2022/06/23 12:53:22;;;;;;;3.42;2.05;;;36.30;46.10;;;;;;5010442;28;20057;-80
2022/06/23 12:56:27;;;;;;;5.00;2.25;;;36.20;45.10;;;;;;5012802;28;20045;-80
2022/06/23 12:59:24;;;;;;;4.00;1.70;;;36.10;44.60;;;;;;4997296;28;20050;-79
2022/06/23 13:02:29;;;;;;;5.30;1.75;;;36.10;46.50;;;;;;5012992;28;20453;-79
2022/06/23 13:05:37;;;;;;;5.57;2.15;;;36.40;45.60;;;;;;5013070;28;20046;-80
2022/06/23 13:08:35;;;;;;;5.18;1.83;;;36.50;45.40;;;;;;4995103;28;20109;-80
2022/06/23 13:11:42;;;;;;;11.77;2.10;;;36.70;44.30;;;;;;5013516;28;20398;-79
2022/06/23 13:14:51;;;;;;;5.20;1.90;;;36.90;43.00;;;;;;5013554;28;20038;-80
2022/06/23 13:17:53;;;;;;;4.53;1.90;;;37.00;42.90;;;;;;4994772;28;20050;-80
2022/06/23 13:21:00;;;;;;;4.22;1.60;;;37.20;45.80;;;;;;4997457;28;20058;-79
2022/06/23 13:23:51;;;;;;;3.47;1.83;;;37.30;44.00;;;;;;4998141;28;20049;-80
2022/06/23 13:26:40;;;;;;;5.50;1.75;;;37.40;43.70;;;;;;5012194;28;20081;-79
2022/06/23 13:33:49;;;;;;;6.40;2.00;;;37.80;42.60;;;;;;5013608;28;20068;-79
2022/06/23 13:36:45;;;;;;;4.50;1.55;;;37.70;42.80;;;;;;4982280;28;20796;-80
2022/06/23 13:40:09;;;;;;;5.85;1.90;;;38.20;42.90;;;;;;4995601;28;20053;-81
2022/06/23 13:47:29;;;;;;;6.53;1.88;;;38.70;41.70;;;;;;4968420;28;20054;-78
2022/06/23 13:50:26;;;;;;;2.50;1.00;;;38.40;39.20;;;;;;4998124;28;20495;-80
2022/06/23 13:53:12;;;;;;;4.90;1.92;;;38.70;39.80;;;;;;5000055;28;20060;-83
2022/06/23 13:56:21;;;;;;;5.50;2.60;;;39.10;41.50;;;;;;5014990;28;20465;-79
2022/06/23 13:59:32;;;;;;;6.53;1.60;;;39.30;39.80;;;;;;4996248;28;20046;-80
2022/06/23 14:02:41;;;;;;;5.55;2.03;;;39.50;41.40;;;;;;5012685;28;20510;-79
2022/06/23 14:05:51;;;;;;;4.00;1.30;;;39.40;39.80;;;;;;4994030;28;20053;-81
2022/06/23 14:08:58;;;;;;;5.10;1.40;;;39.80;40.30;;;;;;4993160;28;20498;-80
2022/06/23 14:11:53;;;;;;;4.85;1.55;;;39.70;38.70;;;;;;4997106;28;20058;-80
2022/06/23 14:14:52;;;;;;;4.07;1.38;;;40.00;38.60;;;;;;5011230;28;20103;-80
2022/06/23 14:17:55;;;;;;;3.72;1.67;;;40.30;40.10;;;;;;5012005;28;20045;-80
2022/06/23 14:20:47;;;;;;;4.13;1.77;;;40.50;38.10;;;;;;5011769;28;20057;-78
2022/06/23 14:23:42;;;;;;;7.93;1.75;;;40.40;38.10;;;;;;5011733;28;20053;-78
2022/06/23 14:26:53;;;;;;;2.70;1.20;;;40.90;41.00;;;;;;4994719;28;20046;-79
2022/06/23 14:29:49;;;;;;;5.85;2.08;;;40.90;39.70;;;;;;4994889;28;20574;-79
2022/06/23 14:32:55;;;;;;;3.88;1.77;;;40.20;42.60;;;;;;5014259;28;20454;-78
2022/06/23 14:35:52;;;;;;;5.68;2.05;;;40.00;44.10;;;;;;4987860;28;20050;-78
2022/06/23 14:38:54;;;;;;;3.53;1.75;;;40.40;45.80;;;;;;4969229;28;20116;-80
2022/06/23 14:42:12;;;;;;;5.82;1.83;;;40.30;43.60;;;;;;4980235;28;20050;-80
2022/06/23 14:45:17;;;;;;;8.55;2.35;;;40.10;44.00;;;;;;5011369;28;20050;-81
2022/06/23 14:48:34;;;;;;;5.00;1.77;;;40.10;43.90;;;;;;5011621;28;20045;-79
2022/06/23 14:51:50;;;;;;;8.68;2.80;;;39.80;43.50;;;;;;5011184;28;20361;-79
2022/06/23 14:54:48;;;;;;;5.32;1.98;;;39.60;44.60;;;;;;4993737;28;20470;-80
2022/06/23 14:57:48;;;;;;;8.63;2.67;;;39.40;45.50;;;;;;4993931;28;20080;-80
2022/06/23 15:00:43;;;;;;;5.25;2.10;;;39.70;45.50;;;;;;4994987;28;20403;-81
2022/06/23 15:04:10;;;;;;;8.07;2.40;;;39.40;44.40;;;;;;4993548;28;20049;-80
2022/06/23 15:07:09;;;;;;;11.90;2.90;;;39.10;46.40;;;;;;5005076;28;20057;-79
2022/06/23 15:10:26;;;;;;;8.88;2.75;;;39.00;45.60;;;;;;5011074;28;20129;-80
2022/06/23 15:13:39;;;;;;;10.55;2.75;;;39.00;45.70;;;;;;5011026;28;20046;-79
2022/06/23 15:17:09;;;;;;;7.90;2.40;;;38.80;45.90;;;;;;5010884;28;20053;-80
2022/06/23 15:20:28;;;;;;;7.97;2.33;;;38.60;45.90;;;;;;4970747;28;20129;-80
2022/06/23 15:23:40;;;;;;;6.05;2.30;;;38.80;45.00;;;;;;5011142;28;20095;-80
2022/06/23 15:26:31;;;;;;;5.50;2.00;;;38.60;46.20;;;;;;4978608;28;20053;-80
2022/06/23 15:29:24;;;;;;;6.78;2.13;;;38.50;47.20;;;;;;5009968;28;20136;-79
2022/06/23 15:32:26;;;;;;;6.70;2.65;;;38.40;46.30;;;;;;4981780;28;20053;-80
2022/06/23 15:35:23;;;;;;;9.45;2.50;;;38.30;46.60;;;;;;4992741;28;20060;-80
2022/06/23 15:38:23;;;;;;;6.97;2.33;;;38.10;46.70;;;;;;4993438;28;20394;-80
2022/06/23 15:41:28;;;;;;;6.38;1.92;;;37.70;47.20;;;;;;5010190;28;20038;-80
2022/06/23 15:44:30;;;;;;;5.35;2.13;;;37.60;47.30;;;;;;4993623;28;20524;-79
2022/06/23 15:47:40;;;;;;;8.02;2.30;;;37.30;47.70;;;;;;4980125;28;20058;-80
2022/06/23 15:50:32;;;;;;;6.53;2.45;;;36.90;47.00;;;;;;5010689;28;20053;-80
2022/06/23 15:53:37;;;;;;;11.40;2.17;;;36.50;47.90;;;;;;5013406;28;20054;-80